Latest Weather Observations for Moruya Airport

IDN60901

Issued at 2:12 am EDT Tuesday 3 March 2015 (issued every 10 minutes, with the page automatically refreshed every 10 minutes)

About weather observations | Map of Canberra area stations | Latest observations for Canberra area | Other Formats
Station Details ID: 069148 Name: MORUYA AIRPORT AWS Lat: -35.90 Lon: 150.14 Height: 4.0 m
Data from the previous 72 hours. | See also: Recent months for locations in Aust Capital Territory
Date/Time
EDT
Tmp

°C
App
Tmp
°C
Dew
Point
°C
Rel
Hum
%
Delta-T

°C
Wind Press
QNH
hPa
Press
MSL
hPa
Rain
since
9 am
mm
Dir
 
Spd
km/h
Gust
km/h
Spd
kts
Gust
kts
03/02:00am 16.2 16.9 16.2 100 0.0 NW 7 11 4 6 1015.4 1015.3 0.0
03/01:30am 16.2 16.6 16.2 100 0.0 NW 9 11 5 6 1015.7 1015.6 0.0
03/01:00am 16.1 16.8 16.1 100 0.0 NW 7 9 4 5 1016.1 1016.0 0.0
 
Date/Time
EDT
Tmp

°C
App
Tmp
°C
Dew
Point
°C
Rel
Hum
%
Delta-T

°C
Wind Press
QNH
hPa
Press
MSL
hPa
Rain
since
9 am
mm
Dir
 
Spd
km/h
Gust
km/h
Spd
kts
Gust
kts
02/11:30pm 16.0 16.9 16.0 100 0.0 WNW 6 9 3 5 1017.4 1017.3 0.0
02/11:00pm 16.3 18.4 16.3 100 0.0 CALM 0 0 0 0 1017.3 1017.2 0.0
02/10:30pm 16.1 18.1 16.1 100 0.0 CALM 0 0 0 0 1017.3 1017.2 0.0
02/10:00pm 16.5 17.6 16.5 100 0.0 WNW 6 7 3 4 1017.3 1017.2 0.0
02/09:30pm 16.8 17.7 16.6 99 0.1 NNW 7 9 4 5 1017.2 1017.1 0.0
02/08:30pm 17.8 19.0 17.3 97 0.3 NNW 7 11 4 6 1016.7 1016.6 0.0
02/08:00pm 18.5 19.7 17.3 93 0.7 NNW 7 11 4 6 1016.5 1016.4 0.0
02/07:30pm 19.6 20.8 17.4 87 1.3 NNW 7 11 4 6 1016.4 1016.3 0.0
02/07:00pm 20.8 21.4 17.8 83 1.8 NNE 11 15 6 8 1016.5 1016.4 0.0
02/06:30pm 21.0 21.8 17.4 80 2.2 NNE 9 13 5 7 1016.5 1016.4 0.0
02/05:30pm 21.0 21.7 17.0 78 2.4 NE 9 13 5 7 1016.5 1016.4 0.0
02/05:00pm 21.8 21.9 16.5 72 3.2 ENE 11 15 6 8 1016.9 1016.8 0.0
02/04:30pm 22.0 21.4 16.7 72 3.2 NE 15 19 8 10 1016.9 1016.8 0.0
02/04:00pm 21.7 20.7 15.5 68 3.7 ENE 15 17 8 9 1017.2 1017.1 0.0
02/03:30pm 21.7 20.5 15.1 66 3.9 ENE 15 19 8 10 1017.4 1017.3 0.0
02/03:00pm 21.3 19.9 14.5 65 4.0 E 15 17 8 9 1017.9 1017.8 0.0
02/02:30pm 21.0 19.0 13.9 64 4.1 E 17 19 9 10 1018.1 1018.0 0.0
02/02:00pm 21.3 19.4 14.2 64 4.1 E 17 19 9 10 1018.5 1018.4 0.0
02/01:30pm 21.7 19.7 13.9 61 4.5 E 17 19 9 10 1018.6 1018.5 0.0
02/01:00pm 21.6 19.7 13.0 58 4.9 E 15 19 8 10 1018.8 1018.7 0.0
02/12:30pm 21.1 18.6 11.2 53 5.5 ESE 15 20 8 11 1019.1 1019.0 0.0
02/12:00pm 21.7 20.0 12.3 55 5.3 ESE 13 19 7 10 1019.5 1019.4 0.0
02/11:30am 21.6 20.2 12.2 55 5.3 ESE 11 13 6 7 1019.7 1019.6 0.0
02/11:00am 21.6 21.7 12.7 57 5.0 SSW 4 11 2 6 1020.0 1019.9 0.0
02/10:30am 20.4 19.1 11.3 56 5.0 SSW 9 17 5 9 1019.9 1019.8 0.0
02/10:00am 18.9 17.2 11.2 61 4.2 SW 11 13 6 7 1019.8 1019.7 0.0
02/09:30am 18.4 17.8 14.5 78 2.3 SW 11 13 6 7 1020.1 1020.0 0.0
02/09:00am 16.8 15.8 13.3 80 2.0 SW 11 15 6 8 1020.0 1019.9 5.4
02/08:30am 15.8 15.4 12.9 83 1.6 W 7 13 4 7 1019.8 1019.7 5.4
02/08:00am 14.3 13.3 12.3 88 1.1 W 9 13 5 7 1019.7 1019.6 5.4
02/07:30am 12.9 11.8 12.1 95 0.4 W 9 13 5 7 1019.6 1019.5 5.4
02/07:00am 11.7 10.4 11.4 98 0.2 WSW 9 13 5 7 1019.2 1019.1 5.4
02/06:30am 12.2 10.9 11.3 94 0.5 WSW 9 13 5 7 1018.9 1018.8 5.4
02/05:30am 12.7 11.1 11.6 93 0.6 W 11 17 6 9 1018.2 1018.1 5.4
02/05:00am 12.6 10.8 12.1 97 0.3 W 13 17 7 9 1018.0 1017.9 5.4
02/04:30am 13.0 10.6 12.5 97 0.3 W 17 24 9 13 1018.4 1018.3 5.4
02/04:00am 12.7 10.7 12.7 100 0.0 W 15 22 8 12 1017.9 1017.8 5.4
02/03:30am 12.4 11.8 12.4 100 0.0 W 7 11 4 6 1017.8 1017.7 5.4
02/03:00am 12.8 11.2 12.8 100 0.0 W 13 19 7 10 1018.3 1018.2 5.4
02/02:30am 12.1 11.0 12.1 100 0.0 W 9 11 5 6 1018.5 1018.4 5.4
02/02:00am 11.6 10.4 11.6 100 0.0 WSW 9 13 5 7 1018.6 1018.5 5.4
02/01:30am 12.0 10.9 12.0 100 0.0 W 9 11 5 6 1018.4 1018.3 5.4
02/01:00am 12.1 12.4 12.1 100 0.0 WSW 2 9 1 5 1018.3 1018.2 5.4
02/12:30am 12.7 11.8 12.7 100 0.0 WNW 9 11 5 6 1018.1 1018.0 5.4
02/12:00am 13.2 12.9 13.2 100 0.0 W 7 9 4 5 1018.0 1017.9 5.4
 
Date/Time
EDT
Tmp

°C
App
Tmp
°C
Dew
Point
°C
Rel
Hum
%
Delta-T

°C
Wind Press
QNH
hPa
Press
MSL
hPa
Rain
since
9 am
mm
Dir
 
Spd
km/h
Gust
km/h
Spd
kts
Gust
kts
01/11:30pm 14.0 13.7 13.2 95 0.4 W 7 11 4 6 1017.9 1017.8 5.4
01/11:00pm 15.1 14.7 13.0 87 1.2 SW 7 11 4 6 1017.8 1017.7 5.4
01/10:30pm 16.3 15.4 12.5 78 2.1 SSW 9 15 5 8 1017.4 1017.3 5.4
01/10:00pm 17.3 15.9 12.2 72 2.8 SSW 11 19 6 10 1017.2 1017.1 5.4
01/09:30pm 17.4 15.4 12.7 74 2.6 SSW 15 20 8 11 1016.5 1016.4 5.4
01/09:00pm 17.8 17.1 13.1 74 2.6 SSW 9 11 5 6 1015.9 1015.8 5.4
01/08:30pm 19.0 18.1 13.6 71 3.1 SSW 11 15 6 8 1015.3 1015.2 5.4
01/08:00pm 19.3 18.1 14.1 72 3.0 S 13 17 7 9 1014.7 1014.6 5.4
01/07:30pm 19.4 17.7 13.6 69 3.3 S 15 22 8 12 1013.7 1013.6 5.4
01/07:00pm 19.9 17.4 14.0 69 3.4 S 20 28 11 15 1012.9 1012.8 5.4
01/06:30pm 20.2 18.5 15.8 76 2.6 S 19 26 10 14 1012.0 1011.9 5.4
01/06:00pm 19.8 19.4 16.3 80 2.1 S 13 19 7 10 1011.3 1011.2 5.4
01/05:30pm 19.7 17.5 16.0 79 2.2 S 22 33 12 18 1011.0 1010.9 5.4
01/05:00pm 19.4 17.8 16.1 81 2.0 SSW 19 26 10 14 1010.3 1010.2 5.4
01/04:30pm 18.8 16.4 16.4 86 1.4 S 24 32 13 17 1010.1 1010.0 5.4
01/04:00pm 18.8 16.2 16.8 88 1.2 S 26 43 14 23 1009.8 1009.7 5.4
01/03:30pm 18.6 14.8 17.1 91 0.9 S 33 43 18 23 1009.0 1008.9 5.4
01/03:00pm 18.3 15.9 18.3 100 0.0 S 28 41 15 22 1008.8 1008.7 5.4
01/02:45pm 18.3 15.9 18.3 100 0.0 S 28 46 15 25 1008.6 1008.5 5.4
01/02:30pm 18.0 15.9 18.0 100 0.0 S 26 41 14 22 1008.7 1008.6 5.2
01/02:29pm 18.1 16.4 18.1 100 0.0 S 24 41 13 22 1008.7 1008.6 5.2
01/02:05pm 17.9 14.6 17.9 100 0.0 S 32 46 17 25 1009.1 1009.0 3.4
01/02:00pm 18.1 15.3 18.1 100 0.0 S 30 46 16 25 1009.0 1008.9 3.0
01/01:57pm 18.3 15.9 18.3 100 0.0 S 28 46 15 25 1009.0 1008.9 2.8
01/01:40pm 19.3 18.1 19.3 100 0.0 S 24 35 13 19 1007.6 1007.5 2.4
01/01:30pm 20.9 18.8 19.0 89 1.2 S 28 41 15 22 1008.6 1008.5 0.0
01/01:06pm 22.7 21.0 19.9 84 1.8 S 28 50 15 27 1007.6 1007.5 0.0
01/01:00pm 22.7 21.0 18.9 79 2.4 SSE 26 39 14 21 1007.5 1007.4 0.0
01/12:30pm 24.8 23.1 19.8 74 3.2 SSE 28 41 15 22 1007.4 1007.3 0.0
01/12:00pm 25.0 22.4 19.8 73 3.4 S 33 46 18 25 1007.3 1007.2 0.0
01/11:30am 25.0 24.1 19.1 70 3.8 S 22 32 12 17 1006.5 1006.4 0.0
01/11:00am 23.7 24.4 20.4 82 2.1 SSW 17 24 9 13 1006.1 1006.0 0.0
01/10:30am 23.2 24.6 20.3 84 1.9 SW 13 19 7 10 1005.7 1005.6 0.0
01/10:00am 23.2 25.0 20.3 84 1.9 WSW 11 15 6 8 1005.1 1005.0 0.0
01/09:30am 22.8 25.1 20.7 88 1.4 SW 9 13 5 7 1005.0 1004.9 0.0
01/09:00am 23.1 24.8 20.1 83 1.9 SW 11 19 6 10 1004.9 1004.8 0.0
01/08:30am 23.0 25.2 20.5 86 1.6 WSW 9 13 5 7 1004.8 1004.7 0.0
01/08:03am 21.4 24.3 21.1 98 0.2 SW 7 11 4 6 1004.7 1004.6 0.0
01/08:00am 21.0 23.6 20.5 97 0.3 WSW 7 11 4 6 1004.8 1004.7 0.0
01/07:44am 21.0 23.5 21.0 100 0.0 WSW 9 15 5 8 1005.0 1004.9 0.0
01/07:30am 20.6 21.8 20.6 100 0.0 WSW 15 22 8 12 1004.8 1004.7 0.0
01/07:00am 19.7 20.0 19.7 100 0.0 SSW 17 26 9 14 1004.0 1003.9 0.0
01/06:49am 19.1 19.9 19.1 100 0.0 SW 13 20 7 11 1003.7 1003.6 0.0
01/06:30am 17.8 20.1 17.8 100 0.0 WNW 2 9 1 5 1002.8 1002.7 0.0
01/06:00am 18.6 20.5 18.6 100 0.0 N 6 7 3 4 1002.3 1002.2 0.0
01/05:30am 17.7 20.4 17.7 100 0.0 CALM 0 6 0 3 1001.8 1001.7 0.0
01/05:00am 18.0 20.4 18.0 100 0.0 N 2 7 1 4 1001.9 1001.8 0.0
01/04:30am 18.7 21.8 18.7 100 0.0 CALM 0 0 0 0 1002.2 1002.1 0.0
01/04:00am 19.4 21.5 19.4 100 0.0 NNE 7 9 4 5 1002.3 1002.2 0.0
01/03:56am 19.5 21.7 19.5 100 0.0 NNE 7 7 4 4 1002.3 1002.2 0.0
01/03:47am 19.6 21.4 19.6 100 0.0 NNE 9 9 5 5 1002.4 1002.3 0.0
01/03:30am 18.8 20.6 18.8 100 0.0 NNW 7 11 4 6 1002.7 1002.6 0.0
01/03:00am 18.5 21.5 18.5 100 0.0 CALM 0 0 0 0 1002.9 1002.8 0.0
01/02:30am 18.4 21.4 18.4 100 0.0 CALM 0 0 0 0 1003.2 1003.1 0.0
01/02:00am 18.6 21.7 18.6 100 0.0 CALM 0 0 0 0 1003.7 1003.6 0.0
01/01:30am 18.8 22.0 18.8 100 0.0 CALM 0 0 0 0 1004.1 1004.0 0.0
01/01:00am 18.6 21.7 18.6 100 0.0 CALM 0 0 0 0 1004.4 1004.3 0.0
01/12:30am 18.6 21.7 18.6 100 0.0 CALM 0 0 0 0 1004.8 1004.7 0.0
01/12:15am 18.8 22.0 18.8 100 0.0 CALM 0 0 0 0 1004.9 1004.8 0.0
01/12:14am 18.8 22.0 18.8 100 0.0 CALM 0 0 0 0 1004.9 1004.8 0.0
01/12:00am 19.0 22.3 19.0 100 0.0 CALM 0 0 0 0 1005.0 1004.9 0.0
 
Date/Time
EDT
Tmp

°C
App
Tmp
°C
Dew
Point
°C
Rel
Hum
%
Delta-T

°C
Wind Press
QNH
hPa
Press
MSL
hPa
Rain
since
9 am
mm
Dir
 
Spd
km/h
Gust
km/h
Spd
kts
Gust
kts
28/11:54pm 19.0 22.3 19.0 100 0.0 CALM 0 0 0 0 1005.0 1004.9 0.0
28/11:30pm 19.4 22.8 19.4 100 0.0 CALM 0 0 0 0 1005.1 1005.0 0.0
28/11:00pm 19.6 23.1 19.6 100 0.0 CALM 0 0 0 0 1005.5 1005.4 0.0
28/10:34pm 19.4 22.8 19.4 100 0.0 CALM 0 0 0 0 1005.8 1005.7 0.0
28/10:30pm 19.2 22.5 19.2 100 0.0 CALM 0 0 0 0 1005.8 1005.7 0.0
28/10:18pm 19.5 23.0 19.5 100 0.0 CALM 0 0 0 0 1005.8 1005.7 0.0
28/10:00pm 19.5 23.0 19.5 100 0.0 CALM 0 0 0 0 1005.9 1005.8 0.0
28/09:30pm 20.0 23.7 20.0 100 0.0 CALM 0 0 0 0 1006.1 1006.0 0.0
28/09:00pm 20.8 24.8 20.5 98 0.2 CALM 0 0 0 0 1006.1 1006.0 0.0
28/08:36pm 21.4 24.7 20.7 96 0.5 NE 4 6 2 3 1006.0 1005.9 0.0
28/08:30pm 21.5 24.4 20.7 95 0.5 NE 6 7 3 4 1005.9 1005.8 0.0
28/08:24pm 21.6 24.4 20.8 95 0.5 NE 7 7 4 4 1005.8 1005.7 0.0
28/08:09pm 22.0 24.4 20.8 93 0.8 NE 9 13 5 7 1005.7 1005.6 0.0
28/08:00pm 22.6 24.8 21.2 92 0.9 NE 11 17 6 9 1005.6 1005.5 0.0
28/07:51pm 22.5 24.3 21.1 92 0.9 NE 13 19 7 10 1005.5 1005.4 0.0
28/07:30pm 22.8 23.8 21.1 90 1.1 NE 17 20 9 11 1005.4 1005.3 0.0
28/07:00pm 23.0 23.6 21.1 89 1.2 NE 19 26 10 14 1005.1 1005.0 0.0
28/06:30pm 23.9 24.6 21.2 85 1.8 NE 19 22 10 12 1005.0 1004.9 0.0
28/06:00pm 24.7 26.0 21.6 83 2.1 NE 17 24 9 13 1005.0 1004.9 0.0
28/05:30pm 25.0 24.7 21.1 79 2.6 NNE 24 32 13 17 1004.8 1004.7 0.0
28/05:00pm 25.1 24.9 21.2 79 2.6 NNE 24 30 13 16 1005.2 1005.1 0.0
28/04:30pm 25.1 25.1 21.6 81 2.3 NE 24 32 13 17 1005.4 1005.3 0.0
28/04:00pm 25.1 24.5 21.2 79 2.6 NNE 26 35 14 19 1005.4 1005.3 0.0
28/03:30pm 25.3 25.0 21.8 81 2.3 NE 26 33 14 18 1005.9 1005.8 0.0
28/03:00pm 25.2 25.4 22.1 83 2.1 NE 24 33 13 18 1006.3 1006.2 0.0
28/02:30pm 25.1 25.2 21.8 82 2.2 NE 24 30 13 16 1006.8 1006.7 0.0
28/02:00pm 25.2 26.0 21.7 81 2.3 NE 20 26 11 14 1007.2 1007.1 0.0
28/01:30pm 24.6 25.2 21.1 81 2.3 NE 19 22 10 12 1007.7 1007.6 0.0
28/01:00pm 24.1 25.1 21.0 83 2.0 NE 17 20 9 11 1008.2 1008.1 0.0
28/12:30pm 24.1 25.8 21.6 86 1.7 ENE 15 19 8 10 1008.6 1008.5 0.0
28/12:00pm 23.6 26.3 21.3 87 1.5 NE 9 13 5 7 1009.1 1009.0 0.0
28/11:46am 22.5 24.7 21.1 92 0.9 NE 11 13 6 7 1009.3 1009.2 0.0
28/11:30am 21.7 24.0 20.7 94 0.6 NNE 9 13 5 7 1009.5 1009.4 0.0
28/11:27am 21.6 23.9 20.6 94 0.6 NNE 9 13 5 7 1009.4 1009.3 0.0
28/11:00am 21.5 22.9 20.3 93 0.8 ENE 13 17 7 9 1009.1 1009.0 0.0
28/10:30am 22.4 25.2 20.9 91 1.0 ENE 7 11 4 6 1009.7 1009.6 0.0
28/10:00am 21.4 23.6 20.4 94 0.6 ENE 9 11 5 6 1010.0 1009.9 0.0
28/09:36am 21.6 24.4 20.9 96 0.5 ENE 7 9 4 5 1010.0 1009.9 0.0
28/09:30am 21.1 23.9 20.8 98 0.2 ENE 7 9 4 5 1010.1 1010.0 0.0
28/09:20am 21.1 24.2 21.1 100 0.0 ENE 6 9 3 5 1010.0 1009.9 0.0
28/09:00am 20.5 24.5 20.5 100 0.0 CALM 0 0 0 0 1010.1 1010.0 0.0
28/08:51am 19.7 23.3 19.7 100 0.0 CALM 0 0 0 0 1010.0 1009.9 0.0
28/08:30am 19.2 22.5 19.2 100 0.0 CALM 0 0 0 0 1009.9 1009.8 0.0
28/08:00am 18.6 21.3 18.6 100 0.0 NNE 2 6 1 3 1009.7 1009.6 0.0
28/07:52am 18.7 21.8 18.7 100 0.0 CALM 0 0 0 0 1009.6 1009.5 0.0
28/07:37am 18.3 21.2 18.3 100 0.0 CALM 0 0 0 0 1009.7 1009.6 0.0
28/07:30am 18.2 21.1 18.2 100 0.0 CALM 0 0 0 0 1009.7 1009.6 0.0
28/07:00am 17.7 20.4 17.7 100 0.0 CALM 0 0 0 0 1009.4 1009.3 0.0
28/06:30am 17.8 20.5 17.8 100 0.0 CALM 0 0 0 0 1009.1 1009.0 0.0
28/06:21am 17.9 20.7 17.9 100 0.0 CALM 0 6 0 3 1009.0 1008.9 0.0
28/06:00am 17.9 20.7 17.9 100 0.0 CALM 0 6 0 3 1009.0 1008.9 0.0
28/05:30am 17.6 20.2 17.6 100 0.0 CALM 0 0 0 0 1008.9 1008.8 0.0
28/05:00am 17.5 20.1 17.5 100 0.0 CALM 0 0 0 0 1008.8 1008.7 0.0
28/04:30am 17.4 20.0 17.4 100 0.0 CALM 0 0 0 0 1009.0 1008.9 0.0
28/04:00am 17.5 20.1 17.5 100 0.0 CALM 0 0 0 0 1009.2 1009.1 0.0
28/03:30am 17.5 20.1 17.5 100 0.0 CALM 0 0 0 0 1009.3 1009.2 0.0
28/03:00am 17.5 20.1 17.5 100 0.0 CALM 0 0 0 0 1009.5 1009.4 0.0
28/02:30am 17.8 20.5 17.8 100 0.0 CALM 0 0 0 0 1009.4 1009.3 0.0

Latest Capital City Observations: Canberra | Sydney | Melbourne | Brisbane | Adelaide | Perth | Hobart | Darwin

Other Formats:

Comma delimited format used in spreadsheet applications
http://www.bom.gov.au/fwo/IDN60903/IDN60903.95937.axf

JavaScript Object Notation format (JSON) in row-major order
http://www.bom.gov.au/fwo/IDN60903/IDN60903.95937.json